Terminal Aerodrome Forecast
Issued by NWS

Home | Current Version | Previous Version | Text Only | Print | Product List | Glossary On
Versions: 1 2 3 4 5 6 7 8 9 10 11 12 13 14 15 16 17 18 19 20 21 22 23 24 25
000
FTUS41 KOKX 312300
TAFTEB
TAF
KTEB 312336Z 0100/0124 16006KT P6SM SCT120
     FM010300 VRB02KT P6SM FEW120 BKN250
     FM011400 19006KT P6SM FEW060 BKN250
     FM011900 17010KT P6SM SCT060 BKN120=

USA.gov is the U.S. government's official web portal to all federal, state and local government web resources and services.